createdAt,value
2024-01-31T00:01:23.065Z,12.32
2024-01-31T00:03:50.079Z,9.65
2024-01-31T00:06:16.983Z,14.07
2024-01-31T00:08:43.827Z,14.40
2024-01-31T00:11:10.849Z,14.93
2024-01-31T00:13:37.980Z,11.50
2024-01-31T00:16:05.719Z,18.40
2024-01-31T00:18:32.691Z,12.95
2024-01-31T00:20:59.649Z,14.68
2024-01-31T00:23:26.856Z,14.48
2024-01-31T00:25:53.818Z,14.45
2024-01-31T00:28:20.802Z,10.18
2024-01-31T00:30:47.651Z,15.52
2024-01-31T00:33:14.400Z,13.68
2024-01-31T00:35:41.427Z,14.95
2024-01-31T00:38:08.293Z,14.52
2024-01-31T00:40:35.293Z,14.98
2024-01-31T00:43:02.351Z,14.68
2024-01-31T00:45:29.869Z,14.40
2024-01-31T00:47:56.809Z,14.38
2024-01-31T00:50:23.681Z,14.60
2024-01-31T00:52:50.657Z,16.30
2024-01-31T00:55:17.684Z,15.35
2024-01-31T00:57:45.667Z,13.95
2024-01-31T01:00:13.192Z,13.75
2024-01-31T01:02:43.054Z,17.30
2024-01-31T01:05:10.957Z,12.90
2024-01-31T01:07:41.872Z,12.95
2024-01-31T01:10:13.968Z,13.63
2024-01-31T01:12:40.997Z,14.50
2024-01-31T01:15:15.313Z,12.13
2024-01-31T01:17:43.501Z,10.52
2024-01-31T01:20:10.486Z,13.40
2024-01-31T01:22:37.488Z,12.98
2024-01-31T01:25:04.806Z,13.38
2024-01-31T01:27:31.702Z,12.55
2024-01-31T01:29:58.705Z,14.80
2024-01-31T01:32:25.795Z,17.67
2024-01-31T01:34:52.715Z,16.08
2024-01-31T01:37:19.572Z,15.88
2024-01-31T01:39:47.006Z,13.68
2024-01-31T01:42:13.887Z,12.77
2024-01-31T01:44:46.123Z,16.08
2024-01-31T01:47:15.313Z,14.20
2024-01-31T01:49:42.783Z,13.30
2024-01-31T01:52:11.220Z,17.88
2024-01-31T01:54:39.130Z,16.35
2024-01-31T01:57:07.954Z,17.92
2024-01-31T01:59:35.848Z,20.92
2024-01-31T02:02:03.260Z,19.83
2024-01-31T02:04:31.128Z,17.75
2024-01-31T02:06:58.877Z,16.05
2024-01-31T02:09:27.511Z,14.35
2024-01-31T02:11:54.727Z,15.80
2024-01-31T02:14:21.641Z,16.25
2024-01-31T02:16:48.498Z,15.05
2024-01-31T02:19:15.711Z,17.10
2024-01-31T02:21:45.178Z,18.73
2024-01-31T02:24:12.477Z,15.57
2024-01-31T02:26:39.333Z,21.65
2024-01-31T02:29:06.224Z,17.38
2024-01-31T02:31:33.162Z,13.23
2024-01-31T02:34:00.353Z,17.20
2024-01-31T02:36:30.239Z,14.38
2024-01-31T02:38:57.111Z,15.55
2024-01-31T02:41:24.277Z,15.73
2024-01-31T02:43:51.495Z,15.90
2024-01-31T02:46:18.418Z,13.35
2024-01-31T02:48:47.489Z,17.92
2024-01-31T02:51:14.768Z,16.50
2024-01-31T02:53:41.885Z,17.05
2024-01-31T02:56:10.136Z,16.33
2024-01-31T02:58:37.583Z,16.35
2024-01-31T03:01:08.382Z,15.43
2024-01-31T03:03:35.354Z,19.10
2024-01-31T03:06:02.303Z,16.05
2024-01-31T03:08:29.537Z,15.18
2024-01-31T03:10:56.461Z,12.98
2024-01-31T03:13:23.431Z,14.65
2024-01-31T03:15:50.377Z,13.18
2024-01-31T03:18:17.391Z,12.00
2024-01-31T03:20:44.687Z,13.48
2024-01-31T03:23:11.577Z,9.80
2024-01-31T03:25:38.807Z,17.10
2024-01-31T03:28:05.862Z,13.10
2024-01-31T03:30:32.774Z,12.75
2024-01-31T03:33:01.850Z,13.30
2024-01-31T03:35:28.809Z,13.93
2024-01-31T03:37:55.672Z,15.80
2024-01-31T03:40:22.675Z,16.27
2024-01-31T03:42:49.503Z,17.52
2024-01-31T03:45:16.401Z,13.15
2024-01-31T03:47:43.172Z,14.75
2024-01-31T03:50:10.744Z,13.00
2024-01-31T03:52:38.095Z,14.27
2024-01-31T03:55:05.779Z,14.27
2024-01-31T03:57:32.701Z,16.27
2024-01-31T04:00:06.618Z,19.75
2024-01-31T04:02:34.953Z,14.02
2024-01-31T04:05:02.530Z,22.48
2024-01-31T04:07:30.208Z,15.02
2024-01-31T04:09:57.011Z,16.73
2024-01-31T04:12:26.579Z,14.38
2024-01-31T04:14:53.633Z,15.30
2024-01-31T04:17:21.194Z,13.98
2024-01-31T04:19:50.683Z,14.18
2024-01-31T04:22:18.491Z,14.43
2024-01-31T04:24:46.726Z,14.93
2024-01-31T04:27:13.640Z,15.13
2024-01-31T04:29:41.252Z,13.45
2024-01-31T04:32:08.668Z,14.93
2024-01-31T04:34:40.034Z,16.00
2024-01-31T04:37:07.383Z,17.88
2024-01-31T04:39:36.350Z,13.23
2024-01-31T04:42:03.335Z,16.08
2024-01-31T04:44:30.357Z,12.18
2024-01-31T04:46:59.410Z,14.20
2024-01-31T04:49:26.945Z,12.98
2024-01-31T04:51:55.143Z,16.55
2024-01-31T04:54:22.214Z,13.90
2024-01-31T04:56:49.020Z,16.85
2024-01-31T04:59:16.203Z,13.13
2024-01-31T05:01:44.697Z,15.27
2024-01-31T05:04:12.063Z,15.23
2024-01-31T05:06:39.023Z,13.93
2024-01-31T05:09:05.817Z,14.68
2024-01-31T05:11:32.829Z,15.82
2024-01-31T05:14:00.071Z,15.95
2024-01-31T05:16:27.459Z,14.50
2024-01-31T05:18:55.440Z,12.93
2024-01-31T05:21:23.356Z,16.38
2024-01-31T05:23:50.420Z,15.70
2024-01-31T05:26:17.275Z,13.75
2024-01-31T05:28:44.768Z,13.93
2024-01-31T05:31:11.812Z,13.60
2024-01-31T05:33:38.918Z,11.02
2024-01-31T05:36:06.258Z,15.23
2024-01-31T05:38:33.137Z,16.65
2024-01-31T05:40:59.922Z,12.00
2024-01-31T05:43:27.062Z,16.98
2024-01-31T05:45:53.983Z,15.43
2024-01-31T05:48:21.202Z,14.23
2024-01-31T05:50:48.149Z,13.20
2024-01-31T05:53:14.984Z,14.40
2024-01-31T05:55:42.026Z,12.98
2024-01-31T05:58:09.135Z,13.60
2024-01-31T06:00:36.062Z,15.60
2024-01-31T06:03:03.020Z,17.92
2024-01-31T06:05:30.060Z,15.35
2024-01-31T06:07:56.942Z,13.70
2024-01-31T06:10:23.949Z,14.18
2024-01-31T06:12:51.039Z,14.00
2024-01-31T06:15:18.552Z,15.40
2024-01-31T06:17:48.705Z,13.45
2024-01-31T06:20:17.650Z,17.83
2024-01-31T06:22:44.794Z,23.17
2024-01-31T06:25:11.793Z,30.55
2024-01-31T06:27:38.904Z,28.42
2024-01-31T06:30:06.414Z,29.73
2024-01-31T06:32:35.967Z,20.15
2024-01-31T06:35:04.321Z,22.45
2024-01-31T06:37:31.512Z,19.50
2024-01-31T06:39:58.475Z,18.20
2024-01-31T06:42:25.495Z,17.40
2024-01-31T06:44:52.542Z,19.88
2024-01-31T06:47:19.382Z,17.83
2024-01-31T06:49:46.288Z,15.10
2024-01-31T06:52:13.308Z,14.40
2024-01-31T06:54:40.308Z,15.93
2024-01-31T06:57:07.240Z,14.20
2024-01-31T06:59:34.035Z,15.57
2024-01-31T07:02:01.026Z,13.73
2024-01-31T07:04:29.181Z,15.40
2024-01-31T07:06:56.256Z,14.77
2024-01-31T07:09:23.140Z,16.17
2024-01-31T07:11:50.106Z,13.95
2024-01-31T07:14:17.420Z,13.80
2024-01-31T07:16:44.345Z,14.27
2024-01-31T07:19:11.600Z,14.05
2024-01-31T07:21:38.810Z,16.73
2024-01-31T07:24:11.550Z,15.00
2024-01-31T07:26:48.462Z,14.52
2024-01-31T07:29:16.149Z,17.08
2024-01-31T07:31:44.735Z,15.05
2024-01-31T07:34:12.857Z,14.82
2024-01-31T07:36:40.605Z,14.93
2024-01-31T07:39:07.820Z,17.42
2024-01-31T07:41:38.503Z,17.75
2024-01-31T07:44:05.891Z,14.80
2024-01-31T07:46:33.065Z,16.63
2024-01-31T07:49:00.467Z,16.35
2024-01-31T07:51:28.543Z,15.32
2024-01-31T07:53:56.008Z,14.00
2024-01-31T07:56:24.805Z,15.02
2024-01-31T07:58:51.859Z,14.90
2024-01-31T08:01:19.311Z,17.85
2024-01-31T08:03:46.962Z,15.35
2024-01-31T08:06:13.923Z,14.85
2024-01-31T08:08:41.437Z,13.68
2024-01-31T08:11:08.341Z,15.95
2024-01-31T08:13:35.570Z,12.80
2024-01-31T08:16:03.179Z,16.42
2024-01-31T08:18:30.131Z,16.42
2024-01-31T08:20:57.661Z,16.70
2024-01-31T08:23:24.773Z,16.60
2024-01-31T08:25:51.856Z,13.45
2024-01-31T08:28:18.974Z,14.20
2024-01-31T08:30:46.040Z,15.60
2024-01-31T08:33:13.115Z,13.82
2024-01-31T08:35:40.162Z,18.35
2024-01-31T08:38:07.020Z,13.85
2024-01-31T08:40:33.994Z,16.13
2024-01-31T08:43:01.258Z,17.85
2024-01-31T08:45:28.275Z,13.15
2024-01-31T08:47:55.200Z,12.98
2024-01-31T08:50:22.219Z,16.98
2024-01-31T08:52:50.263Z,15.38
2024-01-31T08:55:17.958Z,14.73
2024-01-31T08:57:44.975Z,13.82
2024-01-31T09:00:12.521Z,15.52
2024-01-31T09:02:39.511Z,12.00
2024-01-31T09:05:06.940Z,12.55
2024-01-31T09:07:33.915Z,12.20
2024-01-31T09:10:00.848Z,12.38
2024-01-31T09:12:27.903Z,12.90
2024-01-31T09:14:54.832Z,12.05
2024-01-31T09:17:21.716Z,12.27
2024-01-31T09:19:48.588Z,14.18
2024-01-31T09:22:15.611Z,13.30
2024-01-31T09:24:42.718Z,12.18
2024-01-31T09:27:09.564Z,16.55
2024-01-31T09:29:36.481Z,16.15
2024-01-31T09:32:04.484Z,11.45
2024-01-31T09:34:32.076Z,13.55
2024-01-31T09:36:59.245Z,12.25
2024-01-31T09:39:26.751Z,14.38
2024-01-31T09:41:54.547Z,14.10
2024-01-31T09:44:22.651Z,14.95
2024-01-31T09:46:53.071Z,13.27
2024-01-31T09:49:20.101Z,12.65
2024-01-31T09:51:47.064Z,16.17
2024-01-31T09:54:15.214Z,12.43
2024-01-31T09:56:42.672Z,15.00
2024-01-31T09:59:10.231Z,13.02
2024-01-31T10:01:38.956Z,15.90
2024-01-31T10:04:06.088Z,12.68
2024-01-31T10:06:33.640Z,16.35
2024-01-31T10:09:01.176Z,14.73
2024-01-31T10:11:30.356Z,11.88
2024-01-31T10:13:57.650Z,10.35
2024-01-31T10:16:25.932Z,13.32
2024-01-31T10:18:53.183Z,13.18
2024-01-31T10:21:21.098Z,13.63
2024-01-31T10:24:01.337Z,13.85
2024-01-31T10:26:30.302Z,15.63
2024-01-31T10:29:08.851Z,14.63
2024-01-31T10:31:39.498Z,15.13
2024-01-31T10:34:09.141Z,14.00
2024-01-31T10:39:11.175Z,13.15
2024-01-31T10:41:45.263Z,14.82
2024-01-31T10:44:16.082Z,14.77
2024-01-31T10:46:49.492Z,14.25
2024-01-31T10:49:20.133Z,17.73
2024-01-31T10:51:54.703Z,13.20
2024-01-31T10:54:26.042Z,12.13
2024-01-31T10:56:53.778Z,15.18
2024-01-31T10:59:20.853Z,12.00
2024-01-31T11:01:53.320Z,12.30
2024-01-31T11:04:22.499Z,14.93
2024-01-31T11:06:53.317Z,15.00
2024-01-31T11:09:24.571Z,12.85
2024-01-31T11:12:12.496Z,13.38
2024-01-31T11:14:43.149Z,15.48
2024-01-31T11:17:19.286Z,13.30
2024-01-31T11:19:52.703Z,12.88
2024-01-31T11:22:21.181Z,13.82
2024-01-31T11:24:53.388Z,12.63
2024-01-31T11:27:20.795Z,13.88
2024-01-31T11:29:52.533Z,11.93
2024-01-31T11:32:20.615Z,12.03
2024-01-31T11:34:59.275Z,12.32
2024-01-31T11:37:26.701Z,10.13
2024-01-31T11:39:53.541Z,12.38
2024-01-31T11:42:20.612Z,13.35
2024-01-31T11:44:47.579Z,11.68
2024-01-31T11:47:16.576Z,13.57
2024-01-31T11:49:43.596Z,13.70
2024-01-31T11:52:10.545Z,13.95
2024-01-31T11:54:37.376Z,13.77
2024-01-31T11:57:04.686Z,12.93
2024-01-31T11:59:31.727Z,11.27
2024-01-31T12:01:58.959Z,12.18
2024-01-31T12:04:25.776Z,11.77
2024-01-31T12:07:03.508Z,13.07
2024-01-31T12:09:31.144Z,10.65
2024-01-31T12:11:59.120Z,11.52
2024-01-31T12:14:26.075Z,10.60
2024-01-31T12:16:52.945Z,11.18
2024-01-31T12:19:20.527Z,12.13
2024-01-31T12:21:47.665Z,11.75
2024-01-31T12:24:14.667Z,10.98
2024-01-31T12:26:41.601Z,14.93
2024-01-31T12:29:08.739Z,11.57
2024-01-31T12:31:35.660Z,11.10
2024-01-31T12:34:03.478Z,12.07
2024-01-31T12:36:30.539Z,12.85
2024-01-31T12:38:57.328Z,11.45
2024-01-31T12:41:24.543Z,14.95
2024-01-31T12:43:51.894Z,13.20
2024-01-31T12:46:19.497Z,14.82
2024-01-31T12:48:46.553Z,15.30
2024-01-31T12:51:13.495Z,15.07
2024-01-31T12:53:40.383Z,15.93
2024-01-31T12:56:07.487Z,14.77
2024-01-31T12:58:34.462Z,12.98
2024-01-31T13:01:01.875Z,13.23
2024-01-31T13:03:29.022Z,14.52
2024-01-31T13:05:56.387Z,15.60
2024-01-31T13:08:23.913Z,13.50
2024-01-31T13:10:51.302Z,11.93
2024-01-31T13:13:18.118Z,13.18
2024-01-31T13:15:45.603Z,15.95
2024-01-31T13:18:12.713Z,15.32
2024-01-31T13:20:39.874Z,12.50
2024-01-31T13:23:07.231Z,13.55
2024-01-31T13:25:34.062Z,13.93
2024-01-31T13:28:00.962Z,12.45
2024-01-31T13:30:27.906Z,14.77
2024-01-31T13:32:54.918Z,15.48
2024-01-31T13:35:23.091Z,15.65
2024-01-31T13:37:50.072Z,14.10
2024-01-31T13:40:17.073Z,17.02
2024-01-31T13:42:43.979Z,15.75
2024-01-31T13:45:11.089Z,12.77
2024-01-31T13:47:38.723Z,13.20
2024-01-31T13:50:06.279Z,13.48
2024-01-31T13:52:33.170Z,13.85
2024-01-31T13:55:00.006Z,16.67
2024-01-31T13:57:26.888Z,15.65
2024-01-31T13:59:54.730Z,18.05
2024-01-31T14:02:21.640Z,18.20
2024-01-31T14:04:48.570Z,15.80
2024-01-31T14:07:15.585Z,13.52
2024-01-31T14:09:42.474Z,14.93
2024-01-31T14:12:11.331Z,19.80
2024-01-31T14:14:38.524Z,17.13
2024-01-31T14:17:05.699Z,17.40
2024-01-31T14:19:32.727Z,18.48
2024-01-31T14:22:08.710Z,21.15
2024-01-31T14:24:39.948Z,16.75
2024-01-31T14:27:06.957Z,18.48
2024-01-31T14:29:33.886Z,18.38
2024-01-31T14:32:00.890Z,17.13
2024-01-31T14:34:28.754Z,20.10
2024-01-31T14:36:55.782Z,18.05
2024-01-31T14:39:22.994Z,16.60
2024-01-31T14:41:50.147Z,17.95
2024-01-31T14:44:16.975Z,16.65
2024-01-31T14:46:43.827Z,16.50
2024-01-31T14:49:14.275Z,14.38
2024-01-31T14:51:41.529Z,15.75
2024-01-31T14:54:09.314Z,14.48
2024-01-31T14:56:49.352Z,13.63
2024-01-31T14:59:17.252Z,16.38
2024-01-31T15:01:45.033Z,14.48
2024-01-31T15:04:12.416Z,16.48
2024-01-31T15:06:40.634Z,13.65
2024-01-31T15:09:08.241Z,15.90
2024-01-31T15:11:35.887Z,14.27
2024-01-31T15:14:05.884Z,15.10
2024-01-31T15:16:33.798Z,14.25
2024-01-31T15:19:02.325Z,13.52
2024-01-31T15:21:29.276Z,16.33
2024-01-31T15:23:56.255Z,15.27
2024-01-31T15:26:23.350Z,15.10
2024-01-31T15:28:50.596Z,17.20
2024-01-31T15:31:19.833Z,17.38
2024-01-31T15:33:47.060Z,17.35
2024-01-31T15:36:14.018Z,16.38
2024-01-31T15:38:40.998Z,15.70
2024-01-31T15:41:09.286Z,17.35
2024-01-31T15:43:36.030Z,13.68
2024-01-31T15:46:03.639Z,14.02
2024-01-31T15:48:30.579Z,17.23
2024-01-31T15:50:57.818Z,19.35
2024-01-31T15:53:24.950Z,15.23
2024-01-31T15:55:51.718Z,15.15
2024-01-31T15:58:18.550Z,19.48
2024-01-31T16:00:45.437Z,16.40
2024-01-31T16:03:12.424Z,17.90
2024-01-31T16:05:40.248Z,18.77
2024-01-31T16:08:07.366Z,18.77
2024-01-31T16:10:34.197Z,19.08
2024-01-31T16:13:01.014Z,18.88
2024-01-31T16:15:27.825Z,21.48
2024-01-31T16:17:54.878Z,18.58
2024-01-31T16:20:22.514Z,19.92
2024-01-31T16:22:49.577Z,22.98
2024-01-31T16:25:17.930Z,18.80
2024-01-31T16:27:44.902Z,18.55
2024-01-31T16:30:12.477Z,20.95
2024-01-31T16:32:39.772Z,20.35
2024-01-31T16:35:07.037Z,23.00
2024-01-31T16:37:33.968Z,15.30
2024-01-31T16:40:01.096Z,15.27
2024-01-31T16:42:28.184Z,18.90
2024-01-31T16:44:56.810Z,22.83
2024-01-31T16:47:23.855Z,20.55
2024-01-31T16:49:50.759Z,21.25
2024-01-31T16:52:17.622Z,21.55
2024-01-31T16:54:44.541Z,23.50
2024-01-31T16:57:11.782Z,19.52
2024-01-31T16:59:38.620Z,19.15
2024-01-31T17:02:06.124Z,26.63
2024-01-31T17:04:33.730Z,21.40
2024-01-31T17:07:00.712Z,18.65
2024-01-31T17:09:27.532Z,23.30
2024-01-31T17:11:54.441Z,19.05
2024-01-31T17:14:25.104Z,19.85
2024-01-31T17:16:57.098Z,26.75
2024-01-31T17:19:24.162Z,23.25
2024-01-31T17:21:51.058Z,22.35
2024-01-31T17:24:17.932Z,22.52
2024-01-31T17:26:44.811Z,17.90
2024-01-31T17:29:11.633Z,27.63
2024-01-31T17:31:38.870Z,18.35
2024-01-31T17:34:05.942Z,18.90
2024-01-31T17:36:33.166Z,18.88
2024-01-31T17:39:00.928Z,18.35
2024-01-31T17:41:27.986Z,21.60
2024-01-31T17:43:54.913Z,21.27
2024-01-31T17:46:23.278Z,20.63
2024-01-31T17:48:51.173Z,19.08
2024-01-31T17:51:18.645Z,19.48
2024-01-31T17:53:46.016Z,20.17
2024-01-31T17:56:15.837Z,20.98
2024-01-31T17:58:42.636Z,17.85
2024-01-31T18:01:09.713Z,18.73
2024-01-31T18:03:36.894Z,20.98
2024-01-31T18:06:05.138Z,21.98
2024-01-31T18:08:32.228Z,19.00
2024-01-31T18:10:59.125Z,22.42
2024-01-31T18:13:25.979Z,18.05
2024-01-31T18:15:52.891Z,17.27
2024-01-31T18:18:21.776Z,19.88
2024-01-31T18:20:48.695Z,20.42
2024-01-31T18:23:15.614Z,21.15
2024-01-31T18:25:42.410Z,19.55
2024-01-31T18:28:09.745Z,20.20
2024-01-31T18:30:36.740Z,18.55
2024-01-31T18:33:04.497Z,18.23
2024-01-31T18:35:31.416Z,16.92
2024-01-31T18:37:58.185Z,19.95
2024-01-31T18:40:25.135Z,17.25
2024-01-31T18:42:52.193Z,15.25
2024-01-31T18:45:19.129Z,20.13
2024-01-31T18:47:45.958Z,17.77
2024-01-31T18:50:13.775Z,18.92
2024-01-31T18:52:40.537Z,19.40
2024-01-31T18:55:07.733Z,19.88
2024-01-31T18:57:34.662Z,20.35
2024-01-31T19:00:01.880Z,19.88
2024-01-31T19:02:28.958Z,20.02
2024-01-31T19:05:02.486Z,17.75
2024-01-31T19:07:32.924Z,18.48
2024-01-31T19:09:59.923Z,17.83
2024-01-31T19:12:27.018Z,22.23
2024-01-31T19:14:54.006Z,18.02
2024-01-31T19:17:27.688Z,17.92
2024-01-31T19:19:57.400Z,18.33
2024-01-31T19:22:26.296Z,17.80
2024-01-31T19:24:56.774Z,18.92
2024-01-31T19:27:23.732Z,15.63
2024-01-31T19:29:50.626Z,18.45
2024-01-31T19:32:18.346Z,22.30
2024-01-31T19:34:45.329Z,15.98
2024-01-31T19:37:12.428Z,14.13
2024-01-31T19:39:39.608Z,16.25
2024-01-31T19:42:06.584Z,18.45
2024-01-31T19:44:33.709Z,17.48
2024-01-31T19:47:01.531Z,18.88
2024-01-31T19:49:29.198Z,19.52
2024-01-31T19:51:56.686Z,16.45
2024-01-31T19:54:24.114Z,17.33
2024-01-31T19:56:51.400Z,18.20
2024-01-31T19:59:18.391Z,17.48
2024-01-31T20:01:46.824Z,21.17
2024-01-31T20:04:14.887Z,16.80
2024-01-31T20:06:42.317Z,15.07
2024-01-31T20:09:10.276Z,17.88
2024-01-31T20:11:37.475Z,16.30
2024-01-31T20:14:04.449Z,16.42
2024-01-31T20:16:31.764Z,19.15
2024-01-31T20:18:59.067Z,18.40
2024-01-31T20:21:26.063Z,18.27
2024-01-31T20:23:55.160Z,18.48
2024-01-31T20:26:22.107Z,17.92
2024-01-31T20:28:49.002Z,16.00
2024-01-31T20:31:15.919Z,18.38
2024-01-31T20:33:42.939Z,18.02
2024-01-31T20:36:16.352Z,16.13
2024-01-31T20:38:43.290Z,19.30
2024-01-31T20:41:10.168Z,18.95
2024-01-31T20:43:37.187Z,21.27
2024-01-31T20:46:05.092Z,18.30
2024-01-31T20:48:40.473Z,15.48
2024-01-31T20:51:08.414Z,19.88
2024-01-31T20:53:35.510Z,15.10
2024-01-31T20:56:07.853Z,15.85
2024-01-31T20:58:35.156Z,12.23
2024-01-31T21:01:08.825Z,15.32
2024-01-31T21:03:37.133Z,16.73
2024-01-31T21:06:05.828Z,17.15
2024-01-31T21:08:32.915Z,18.30
2024-01-31T21:10:59.982Z,19.30
2024-01-31T21:13:27.696Z,18.60
2024-01-31T21:15:54.551Z,18.35
2024-01-31T21:18:21.807Z,16.35
2024-01-31T21:20:49.051Z,18.13
2024-01-31T21:23:15.928Z,19.63
2024-01-31T21:25:42.761Z,19.75
2024-01-31T21:28:09.619Z,17.33
2024-01-31T21:30:36.730Z,20.58
2024-01-31T21:33:04.117Z,16.83
2024-01-31T21:35:31.105Z,19.30
2024-01-31T21:37:58.008Z,20.67
2024-01-31T21:40:25.634Z,19.25
2024-01-31T21:42:52.928Z,19.40
2024-01-31T21:45:19.799Z,18.60
2024-01-31T21:47:46.993Z,23.70
2024-01-31T21:50:14.089Z,19.63
2024-01-31T21:52:43.380Z,23.52
2024-01-31T21:55:10.799Z,23.27
2024-01-31T21:57:37.678Z,20.83
2024-01-31T22:00:07.062Z,17.08
2024-01-31T22:02:34.083Z,20.98
2024-01-31T22:05:03.426Z,21.50
2024-01-31T22:07:30.726Z,18.55
2024-01-31T22:09:57.628Z,20.23
2024-01-31T22:12:24.674Z,16.02
2024-01-31T22:14:51.576Z,18.35
2024-01-31T22:17:18.512Z,19.27
2024-01-31T22:19:45.573Z,21.10
2024-01-31T22:22:12.538Z,21.90
2024-01-31T22:24:39.305Z,22.50
2024-01-31T22:27:06.426Z,20.38
2024-01-31T22:29:33.507Z,21.23
2024-01-31T22:32:05.374Z,23.73
2024-01-31T22:34:33.172Z,18.50
2024-01-31T22:37:02.976Z,19.67
2024-01-31T22:39:32.040Z,22.17
2024-01-31T22:41:59.266Z,21.48
2024-01-31T22:44:26.458Z,16.55
2024-01-31T22:46:53.406Z,23.67
2024-01-31T22:49:20.828Z,21.20
2024-01-31T22:51:49.144Z,21.05
2024-01-31T22:54:15.986Z,21.00
2024-01-31T22:56:42.933Z,22.27
2024-01-31T22:59:10.001Z,21.55
2024-01-31T23:01:37.328Z,19.60
2024-01-31T23:04:04.999Z,22.40
2024-01-31T23:06:32.676Z,18.60
2024-01-31T23:08:59.925Z,21.88
2024-01-31T23:11:27.513Z,19.52
2024-01-31T23:13:54.633Z,22.77
2024-01-31T23:16:21.688Z,17.70
2024-01-31T23:18:48.914Z,23.17
2024-01-31T23:21:16.714Z,22.42
2024-01-31T23:23:44.886Z,19.95
2024-01-31T23:26:15.568Z,20.75
2024-01-31T23:28:43.045Z,23.27
2024-01-31T23:31:10.616Z,22.25
2024-01-31T23:33:40.962Z,24.77
2024-01-31T23:36:08.292Z,26.95
2024-01-31T23:38:35.689Z,25.92
2024-01-31T23:41:02.624Z,23.40
2024-01-31T23:43:29.546Z,20.83
2024-01-31T23:45:56.536Z,23.92
2024-01-31T23:48:24.099Z,27.55
2024-01-31T23:50:51.083Z,20.30
2024-01-31T23:53:18.837Z,22.02
2024-01-31T23:55:46.641Z,25.45
2024-01-31T23:58:13.773Z,22.60
